Weather at Naan Airstrip

Public forecast

Using degrees Celsius for public forecast. Weather courtesy of forecast.io.

Closest aviation weather report (METAR) to Naan Airstrip

Closest report is Ben Gurion International Airport, 7.6 nm (14.0 km) N. Retrieved 2022/06/27 23:20 UTC (29 minutes ago):

LLBG 272320Z VRB02KT CAVOK 24/18 Q1007 NOSIG

Closest aviation forecast (TAF) to Naan Airstrip

Closest forecast is Ben Gurion International Airport, 7.6 nm (14.0 km) N. Retrieved 2022/06/27 18:06 UTC (6 hours ago):

TAF LLBG 271702Z 2718/2818 VRB04KT 9999 FEW020 PROB40 2801/2806 17005KT BKN018 BECMG 2807/2809 30012KT CAVOK TX31/2812Z TN22/2803Z